sensor_id;sensor_type;location;lat;lon;timestamp;pressure;altitude;pressure_sealevel;temperature;humidity
75072;BME280;63651;55.728;38.022;2022-12-29T00:04:29;99171.47;;;12.70;41.89
75072;BME280;63651;55.728;38.022;2022-12-29T00:09:31;99169.34;;;12.72;41.66
75072;BME280;63651;55.728;38.022;2022-12-29T00:14:32;99172.69;;;12.74;41.63
75072;BME280;63651;55.728;38.022;2022-12-29T00:19:52;99169.44;;;12.66;41.03
75072;BME280;63651;55.728;38.022;2022-12-29T00:25:12;99161.63;;;12.69;41.05
75072;BME280;63651;55.728;38.022;2022-12-29T00:30:32;99173.38;;;12.70;40.88
75072;BME280;63651;55.728;38.022;2022-12-29T00:35:54;99174.03;;;12.65;40.67
75072;BME280;63651;55.728;38.022;2022-12-29T00:40:57;99186.75;;;12.71;40.79
75072;BME280;63651;55.728;38.022;2022-12-29T00:46:16;99193.03;;;12.72;40.97
75072;BME280;63651;55.728;38.022;2022-12-29T00:51:17;99192.81;;;12.73;41.25
75072;BME280;63651;55.728;38.022;2022-12-29T00:56:18;99184.72;;;12.67;40.69
75072;BME280;63651;55.728;38.022;2022-12-29T01:01:19;99196.84;;;12.71;41.00
75072;BME280;63651;55.728;38.022;2022-12-29T01:06:20;99196.00;;;12.70;41.06
75072;BME280;63651;55.728;38.022;2022-12-29T01:11:21;99192.81;;;12.73;41.13
75072;BME280;63651;55.728;38.022;2022-12-29T01:16:22;99194.09;;;12.71;40.99
75072;BME280;63651;55.728;38.022;2022-12-29T01:21:24;99203.72;;;12.73;40.90
75072;BME280;63651;55.728;38.022;2022-12-29T01:26:25;99203.50;;;12.75;40.95
75072;BME280;63651;55.728;38.022;2022-12-29T01:31:26;99202.06;;;12.72;40.87
75072;BME280;63651;55.728;38.022;2022-12-29T01:36:27;99213.34;;;12.76;40.32
75072;BME280;63651;55.728;38.022;2022-12-29T01:41:28;99220.91;;;12.74;40.03
75072;BME280;63651;55.728;38.022;2022-12-29T01:46:41;99216.28;;;12.74;40.02
75072;BME280;63651;55.728;38.022;2022-12-29T01:51:53;99218.25;;;12.67;40.03
75072;BME280;63651;55.728;38.022;2022-12-29T01:57:02;99219.09;;;12.68;39.71
75072;BME280;63651;55.728;38.022;2022-12-29T02:02:04;99201.38;;;12.59;39.61
75072;BME280;63651;55.728;38.022;2022-12-29T02:07:11;99222.66;;;12.68;39.44
75072;BME280;63651;55.728;38.022;2022-12-29T02:12:16;99227.50;;;12.66;39.95
75072;BME280;63651;55.728;38.022;2022-12-29T02:23:25;99236.94;;;12.64;39.92
75072;BME280;63651;55.728;38.022;2022-12-29T02:44:14;99234.06;;;12.59;41.38
75072;BME280;63651;55.728;38.022;2022-12-29T02:49:22;99241.88;;;12.73;41.44
75072;BME280;63651;55.728;38.022;2022-12-29T02:54:28;99233.09;;;12.71;41.27
75072;BME280;63651;55.728;38.022;2022-12-29T02:59:43;99249.81;;;12.75;41.06
75072;BME280;63651;55.728;38.022;2022-12-29T03:15:25;99259.88;;;12.74;40.39
75072;BME280;63651;55.728;38.022;2022-12-29T03:21:04;99275.41;;;12.74;40.08
75072;BME280;63651;55.728;38.022;2022-12-29T03:26:10;99271.91;;;12.67;39.55
75072;BME280;63651;55.728;38.022;2022-12-29T03:31:13;99280.94;;;12.67;39.02
75072;BME280;63651;55.728;38.022;2022-12-29T03:36:26;99287.34;;;12.55;38.39
75072;BME280;63651;55.728;38.022;2022-12-29T03:41:30;99282.97;;;12.54;38.60
75072;BME280;63651;55.728;38.022;2022-12-29T03:46:32;99290.06;;;12.55;38.29
75072;BME280;63651;55.728;38.022;2022-12-29T03:51:33;99298.03;;;12.56;38.14
75072;BME280;63651;55.728;38.022;2022-12-29T03:56:35;99302.88;;;12.54;38.68
75072;BME280;63651;55.728;38.022;2022-12-29T04:01:36;99315.19;;;12.57;38.25
75072;BME280;63651;55.728;38.022;2022-12-29T04:06:37;99313.09;;;12.59;38.39
75072;BME280;63651;55.728;38.022;2022-12-29T04:11:38;99315.81;;;12.59;38.36
75072;BME280;63651;55.728;38.022;2022-12-29T04:16:39;99305.53;;;12.61;38.63
75072;BME280;63651;55.728;38.022;2022-12-29T04:21:40;99309.09;;;12.61;38.51
75072;BME280;63651;55.728;38.022;2022-12-29T04:26:41;99314.09;;;12.64;38.58
75072;BME280;63651;55.728;38.022;2022-12-29T04:31:42;99312.41;;;12.63;38.25
75072;BME280;63651;55.728;38.022;2022-12-29T04:36:43;99292.19;;;12.53;37.94
75072;BME280;63651;55.728;38.022;2022-12-29T04:41:44;99317.78;;;12.70;37.89
75072;BME280;63651;55.728;38.022;2022-12-29T04:46:45;99307.63;;;12.59;37.61
75072;BME280;63651;55.728;38.022;2022-12-29T04:51:46;99318.47;;;12.65;37.17
75072;BME280;63651;55.728;38.022;2022-12-29T04:56:47;99331.31;;;12.58;36.99
75072;BME280;63651;55.728;38.022;2022-12-29T05:01:48;99333.44;;;12.56;36.93
75072;BME280;63651;55.728;38.022;2022-12-29T05:06:49;99336.78;;;12.58;36.92
75072;BME280;63651;55.728;38.022;2022-12-29T05:11:50;99357.28;;;12.61;36.99
75072;BME280;63651;55.728;38.022;2022-12-29T05:16:51;99347.50;;;12.53;37.00
75072;BME280;63651;55.728;38.022;2022-12-29T05:21:52;99352.44;;;12.63;37.12
75072;BME280;63651;55.728;38.022;2022-12-29T05:26:55;99337.22;;;12.55;37.32
75072;BME280;63651;55.728;38.022;2022-12-29T05:31:56;99361.63;;;12.68;36.89
75072;BME280;63651;55.728;38.022;2022-12-29T05:36:57;99352.00;;;12.66;36.70
75072;BME280;63651;55.728;38.022;2022-12-29T05:41:58;99370.25;;;12.65;37.10
75072;BME280;63651;55.728;38.022;2022-12-29T05:46:59;99374.41;;;12.68;37.15
75072;BME280;63651;55.728;38.022;2022-12-29T05:52:00;99374.88;;;12.65;36.69
75072;BME280;63651;55.728;38.022;2022-12-29T05:57:01;99383.19;;;12.70;36.54
75072;BME280;63651;55.728;38.022;2022-12-29T06:02:02;99374.81;;;12.71;36.72
75072;BME280;63651;55.728;38.022;2022-12-29T06:07:03;99384.44;;;12.74;36.65
75072;BME280;63651;55.728;38.022;2022-12-29T06:12:04;99386.69;;;12.77;36.90
75072;BME280;63651;55.728;38.022;2022-12-29T06:17:06;99402.59;;;12.80;36.23
75072;BME280;63651;55.728;38.022;2022-12-29T06:22:07;99397.53;;;12.83;36.51
75072;BME280;63651;55.728;38.022;2022-12-29T06:27:08;99400.28;;;12.83;36.42
75072;BME280;63651;55.728;38.022;2022-12-29T06:32:09;99391.66;;;12.87;36.15
75072;BME280;63651;55.728;38.022;2022-12-29T06:37:10;99397.88;;;12.94;36.02
75072;BME280;63651;55.728;38.022;2022-12-29T06:42:12;99401.81;;;12.98;36.07
75072;BME280;63651;55.728;38.022;2022-12-29T06:47:13;99390.88;;;13.04;35.95
75072;BME280;63651;55.728;38.022;2022-12-29T06:52:14;99397.53;;;13.08;35.42
75072;BME280;63651;55.728;38.022;2022-12-29T06:57:15;99401.22;;;13.21;35.66
75072;BME280;63651;55.728;38.022;2022-12-29T07:02:16;99400.16;;;13.22;35.33
75072;BME280;63651;55.728;38.022;2022-12-29T07:07:20;99400.47;;;13.32;35.37
75072;BME280;63651;55.728;38.022;2022-12-29T07:12:21;99398.56;;;13.32;35.20
75072;BME280;63651;55.728;38.022;2022-12-29T07:17:22;99403.19;;;13.32;35.04
75072;BME280;63651;55.728;38.022;2022-12-29T07:22:23;99411.16;;;13.33;34.98
75072;BME280;63651;55.728;38.022;2022-12-29T07:27:24;99400.84;;;13.35;34.63
75072;BME280;63651;55.728;38.022;2022-12-29T07:32:25;99410.69;;;13.36;35.12
75072;BME280;63651;55.728;38.022;2022-12-29T07:37:26;99417.81;;;13.37;34.62
75072;BME280;63651;55.728;38.022;2022-12-29T07:42:27;99414.66;;;13.40;34.56
75072;BME280;63651;55.728;38.022;2022-12-29T07:47:28;99421.31;;;13.44;34.75
75072;BME280;63651;55.728;38.022;2022-12-29T07:52:29;99409.56;;;13.44;34.38
75072;BME280;63651;55.728;38.022;2022-12-29T07:57:30;99419.41;;;13.45;34.41
75072;BME280;63651;55.728;38.022;2022-12-29T08:02:31;99411.09;;;13.40;34.63
75072;BME280;63651;55.728;38.022;2022-12-29T08:07:32;99413.28;;;13.50;34.52
75072;BME280;63651;55.728;38.022;2022-12-29T08:12:33;99433.44;;;13.49;34.22
75072;BME280;63651;55.728;38.022;2022-12-29T08:17:35;99434.50;;;13.48;33.69
75072;BME280;63651;55.728;38.022;2022-12-29T08:22:36;99444.97;;;13.51;34.13
75072;BME280;63651;55.728;38.022;2022-12-29T08:27:37;99435.09;;;13.50;33.80
75072;BME280;63651;55.728;38.022;2022-12-29T08:32:38;99442.84;;;13.53;33.84
75072;BME280;63651;55.728;38.022;2022-12-29T08:37:39;99441.47;;;13.62;33.70
75072;BME280;63651;55.728;38.022;2022-12-29T08:42:41;99450.03;;;13.65;33.43
75072;BME280;63651;55.728;38.022;2022-12-29T08:47:42;99451.03;;;13.71;33.27
75072;BME280;63651;55.728;38.022;2022-12-29T08:52:43;99437.91;;;13.61;33.89
75072;BME280;63651;55.728;38.022;2022-12-29T08:57:44;99452.31;;;13.68;33.18
75072;BME280;63651;55.728;38.022;2022-12-29T09:02:46;99451.25;;;13.69;33.60
75072;BME280;63651;55.728;38.022;2022-12-29T09:07:47;99455.34;;;13.78;33.51
75072;BME280;63651;55.728;38.022;2022-12-29T09:12:48;99452.69;;;13.72;33.57
75072;BME280;63651;55.728;38.022;2022-12-29T09:17:49;99450.03;;;13.84;33.57
75072;BME280;63651;55.728;38.022;2022-12-29T09:22:50;99459.28;;;13.83;33.34
75072;BME280;63651;55.728;38.022;2022-12-29T09:27:52;99440.78;;;13.85;32.99
75072;BME280;63651;55.728;38.022;2022-12-29T09:32:53;99444.34;;;13.85;32.78
75072;BME280;63651;55.728;38.022;2022-12-29T09:37:54;99444.63;;;13.95;32.97
75072;BME280;63651;55.728;38.022;2022-12-29T09:48:36;99443.56;;;13.96;32.29
75072;BME280;63651;55.728;38.022;2022-12-29T09:53:50;99438.56;;;13.93;33.18
75072;BME280;63651;55.728;38.022;2022-12-29T10:04:00;99453.19;;;13.99;32.81
75072;BME280;63651;55.728;38.022;2022-12-29T10:14:46;99447.88;;;14.04;33.10
75072;BME280;63651;55.728;38.022;2022-12-29T10:24:52;99444.91;;;14.05;32.15
75072;BME280;63651;55.728;38.022;2022-12-29T10:29:57;99440.84;;;13.78;32.75
75072;BME280;63651;55.728;38.022;2022-12-29T10:35:05;99466.25;;;13.78;32.30
75072;BME280;63651;55.728;38.022;2022-12-29T10:40:28;99465.88;;;13.75;33.39
75072;BME280;63651;55.728;38.022;2022-12-29T10:45:32;99461.78;;;13.66;33.16
75072;BME280;63651;55.728;38.022;2022-12-29T10:50:34;99467.94;;;13.61;32.84
75072;BME280;63651;55.728;38.022;2022-12-29T10:55:38;99450.66;;;13.49;32.91
75072;BME280;63651;55.728;38.022;2022-12-29T11:00:43;99459.13;;;13.59;33.09
75072;BME280;63651;55.728;38.022;2022-12-29T11:11:10;99449.13;;;13.53;33.24
75072;BME280;63651;55.728;38.022;2022-12-29T11:16:11;99453.53;;;13.54;32.92
75072;BME280;63651;55.728;38.022;2022-12-29T11:21:35;99451.78;;;13.60;32.78
75072;BME280;63651;55.728;38.022;2022-12-29T11:26:43;99434.03;;;13.51;33.25
75072;BME280;63651;55.728;38.022;2022-12-29T11:31:47;99458.38;;;13.52;32.79
75072;BME280;63651;55.728;38.022;2022-12-29T11:36:50;99438.28;;;13.47;33.24
75072;BME280;63651;55.728;38.022;2022-12-29T11:41:52;99453.31;;;13.56;33.17
75072;BME280;63651;55.728;38.022;2022-12-29T11:46:54;99453.31;;;13.56;33.06
75072;BME280;63651;55.728;38.022;2022-12-29T11:51:56;99459.44;;;13.51;32.84
75072;BME280;63651;55.728;38.022;2022-12-29T11:56:58;99470.44;;;13.44;33.26
75072;BME280;63651;55.728;38.022;2022-12-29T12:07:44;99434.19;;;13.19;33.56
75072;BME280;63651;55.728;38.022;2022-12-29T12:13:10;99462.59;;;13.30;33.39
75072;BME280;63651;55.728;38.022;2022-12-29T12:28:52;99490.03;;;13.35;33.36
75072;BME280;63651;55.728;38.022;2022-12-29T12:34:01;99483.59;;;13.29;33.25
75072;BME280;63651;55.728;38.022;2022-12-29T12:39:07;99484.44;;;13.30;33.61
75072;BME280;63651;55.728;38.022;2022-12-29T13:05:09;99484.03;;;13.26;33.39
75072;BME280;63651;55.728;38.022;2022-12-29T13:15:50;99492.06;;;13.21;33.88
75072;BME280;63651;55.728;38.022;2022-12-29T13:21:07;99495.41;;;13.23;33.74
75072;BME280;63651;55.728;38.022;2022-12-29T13:26:21;99494.78;;;13.21;33.53
75072;BME280;63651;55.728;38.022;2022-12-29T13:31:46;99495.41;;;13.23;33.77
75072;BME280;63651;55.728;38.022;2022-12-29T13:36:53;99470.50;;;13.13;33.90
75072;BME280;63651;55.728;38.022;2022-12-29T13:41:56;99485.56;;;13.22;33.93
75072;BME280;63651;55.728;38.022;2022-12-29T13:47:01;99470.72;;;13.11;33.83
75072;BME280;63651;55.728;38.022;2022-12-29T13:52:18;99479.72;;;13.19;33.86
75072;BME280;63651;55.728;38.022;2022-12-29T13:57:44;99477.38;;;13.22;33.75
75072;BME280;63651;55.728;38.022;2022-12-29T14:08:16;99482.22;;;13.20;33.67
75072;BME280;63651;55.728;38.022;2022-12-29T14:13:21;99465.50;;;13.10;33.82
75072;BME280;63651;55.728;38.022;2022-12-29T14:18:41;99489.78;;;13.18;33.79
75072;BME280;63651;55.728;38.022;2022-12-29T14:23:45;99478.03;;;13.18;33.82
75072;BME280;63651;55.728;38.022;2022-12-29T14:28:47;99478.44;;;13.21;33.97
75072;BME280;63651;55.728;38.022;2022-12-29T14:44:53;99484.94;;;13.20;33.88
75072;BME280;63651;55.728;38.022;2022-12-29T14:50:02;99478.66;;;13.20;33.74
75072;BME280;63651;55.728;38.022;2022-12-29T15:00:34;99477.84;;;13.12;34.09
75072;BME280;63651;55.728;38.022;2022-12-29T15:05:43;99483.50;;;13.18;34.28
75072;BME280;63651;55.728;38.022;2022-12-29T15:10:51;99457.19;;;12.98;33.85
75072;BME280;63651;55.728;38.022;2022-12-29T15:15:53;99483.88;;;13.21;33.65
75072;BME280;63651;55.728;38.022;2022-12-29T15:20:57;99484.59;;;13.10;33.85
75072;BME280;63651;55.728;38.022;2022-12-29T15:26:05;99484.34;;;13.18;33.63
75072;BME280;63651;55.728;38.022;2022-12-29T15:31:18;99478.22;;;13.16;33.84
75072;BME280;63651;55.728;38.022;2022-12-29T15:36:26;99485.16;;;13.19;34.20
75072;BME280;63651;55.728;38.022;2022-12-29T15:41:35;99483.88;;;13.21;33.97
75072;BME280;63651;55.728;38.022;2022-12-29T15:47:12;99483.50;;;13.18;33.63
75072;BME280;63651;55.728;38.022;2022-12-29T15:52:20;99469.22;;;13.16;33.84
75072;BME280;63651;55.728;38.022;2022-12-29T15:57:42;99484.94;;;13.20;34.02
75072;BME280;63651;55.728;38.022;2022-12-29T16:02:43;99473.19;;;13.20;33.67
75072;BME280;63651;55.728;38.022;2022-12-29T16:07:58;99469.63;;;13.19;33.94
75072;BME280;63651;55.728;38.022;2022-12-29T16:13:27;99476.97;;;13.19;33.74
75072;BME280;63651;55.728;38.022;2022-12-29T16:18:33;99470.47;;;13.20;33.88
75072;BME280;63651;55.728;38.022;2022-12-29T16:23:36;99465.63;;;13.22;33.97
75072;BME280;63651;55.728;38.022;2022-12-29T16:28:41;99457.06;;;13.18;34.00
75072;BME280;63651;55.728;38.022;2022-12-29T16:33:50;99439.44;;;13.14;33.88
75072;BME280;63651;55.728;38.022;2022-12-29T16:39:26;99446.19;;;13.11;33.96
75072;BME280;63651;55.728;38.022;2022-12-29T16:44:29;99435.88;;;13.13;34.28
75072;BME280;63651;55.728;38.022;2022-12-29T16:49:32;99444.47;;;13.17;33.28
75072;BME280;63651;55.728;38.022;2022-12-29T16:54:36;99440.28;;;13.14;33.59
75072;BME280;63651;55.728;38.022;2022-12-29T16:59:41;99436.50;;;13.16;33.81
75072;BME280;63651;55.728;38.022;2022-12-29T17:04:43;99425.41;;;13.10;33.67
75072;BME280;63651;55.728;38.022;2022-12-29T17:09:49;99439.06;;;13.10;34.03
75072;BME280;63651;55.728;38.022;2022-12-29T17:19:59;99408.09;;;12.98;33.82
75072;BME280;63651;55.728;38.022;2022-12-29T17:25:03;99431.47;;;13.12;33.87
75072;BME280;63651;55.728;38.022;2022-12-29T17:30:16;99416.28;;;12.98;33.50
75072;BME280;63651;55.728;38.022;2022-12-29T17:35:19;99435.03;;;13.13;33.83
75072;BME280;63651;55.728;38.022;2022-12-29T17:40:26;99418.97;;;13.05;33.63
75072;BME280;63651;55.728;38.022;2022-12-29T17:45:30;99413.06;;;13.08;33.75
75072;BME280;63651;55.728;38.022;2022-12-29T17:50:32;99413.66;;;13.17;33.88
75072;BME280;63651;55.728;38.022;2022-12-29T17:55:33;99410.06;;;13.16;33.83
75072;BME280;63651;55.728;38.022;2022-12-29T18:00:34;99402.31;;;13.13;34.28
75072;BME280;63651;55.728;38.022;2022-12-29T18:05:35;99386.03;;;13.06;33.62
75072;BME280;63651;55.728;38.022;2022-12-29T18:10:37;99404.00;;;13.14;34.25
75072;BME280;63651;55.728;38.022;2022-12-29T18:15:39;99406.94;;;13.12;33.81
75072;BME280;63651;55.728;38.022;2022-12-29T18:20:41;99407.31;;;13.16;34.13
75072;BME280;63651;55.728;38.022;2022-12-29T18:25:46;99383.75;;;13.03;33.85
75072;BME280;63651;55.728;38.022;2022-12-29T18:30:49;99391.41;;;13.13;33.85
75072;BME280;63651;55.728;38.022;2022-12-29T18:35:55;99364.69;;;12.97;34.17
75072;BME280;63651;55.728;38.022;2022-12-29T18:40:57;99395.56;;;13.16;34.10
75072;BME280;63651;55.728;38.022;2022-12-29T18:45:58;99409.44;;;13.14;33.96
75072;BME280;63651;55.728;38.022;2022-12-29T18:50:59;99387.41;;;13.16;33.95
75072;BME280;63651;55.728;38.022;2022-12-29T18:56:00;99387.63;;;13.14;33.98
75072;BME280;63651;55.728;38.022;2022-12-29T19:01:02;99387.81;;;13.19;33.83
75072;BME280;63651;55.728;38.022;2022-12-29T19:06:03;99391.38;;;13.20;34.08
75072;BME280;63651;55.728;38.022;2022-12-29T19:11:04;99392.47;;;13.12;33.99
75072;BME280;63651;55.728;38.022;2022-12-29T19:16:08;99380.28;;;13.14;34.48
75072;BME280;63651;55.728;38.022;2022-12-29T19:21:13;99376.06;;;13.19;34.14
75072;BME280;63651;55.728;38.022;2022-12-29T19:26:31;99381.94;;;13.16;33.97
75072;BME280;63651;55.728;38.022;2022-12-29T19:31:36;99381.94;;;13.16;34.10
75072;BME280;63651;55.728;38.022;2022-12-29T19:36:37;99379.41;;;13.21;34.14
75072;BME280;63651;55.728;38.022;2022-12-29T19:41:38;99382.97;;;13.21;34.27
75072;BME280;63651;55.728;38.022;2022-12-29T19:46:39;99376.91;;;13.19;34.47
75072;BME280;63651;55.728;38.022;2022-12-29T19:51:40;99374.19;;;13.19;33.96
75072;BME280;63651;55.728;38.022;2022-12-29T19:56:41;99388.03;;;13.18;34.08
75072;BME280;63651;55.728;38.022;2022-12-29T20:01:44;99376.28;;;13.17;34.39
75072;BME280;63651;55.728;38.022;2022-12-29T20:06:45;99349.53;;;13.07;34.46
75072;BME280;63651;55.728;38.022;2022-12-29T20:11:46;99355.72;;;13.14;34.53
75072;BME280;63651;55.728;38.022;2022-12-29T20:16:47;99362.81;;;13.22;34.19
75072;BME280;63651;55.728;38.022;2022-12-29T20:21:48;99345.50;;;13.10;34.56
75072;BME280;63651;55.728;38.022;2022-12-29T20:26:49;99352.59;;;13.18;34.34
75072;BME280;63651;55.728;38.022;2022-12-29T20:31:51;99366.38;;;13.23;34.27
75072;BME280;63651;55.728;38.022;2022-12-29T20:36:52;99368.13;;;13.17;33.77
75072;BME280;63651;55.728;38.022;2022-12-29T20:41:53;99343.13;;;13.20;34.26
75072;BME280;63651;55.728;38.022;2022-12-29T20:46:55;99345.22;;;13.18;34.02
75072;BME280;63651;55.728;38.022;2022-12-29T20:51:56;99352.97;;;13.21;33.84
75072;BME280;63651;55.728;38.022;2022-12-29T20:56:57;99346.91;;;13.19;34.01
75072;BME280;63651;55.728;38.022;2022-12-29T21:01:58;99341.22;;;13.21;34.24
75072;BME280;63651;55.728;38.022;2022-12-29T21:06:59;99333.25;;;13.19;34.02
75072;BME280;63651;55.728;38.022;2022-12-29T21:12:00;99348.34;;;13.22;33.79
75072;BME280;63651;55.728;38.022;2022-12-29T21:17:02;99327.34;;;13.22;33.83
75072;BME280;63651;55.728;38.022;2022-12-29T21:22:03;99317.28;;;13.23;33.90
75072;BME280;63651;55.728;38.022;2022-12-29T21:27:04;99315.16;;;13.25;34.62
75072;BME280;63651;55.728;38.022;2022-12-29T21:32:05;99318.34;;;13.22;34.10
75072;BME280;63651;55.728;38.022;2022-12-29T21:37:06;99327.50;;;13.27;34.31
75072;BME280;63651;55.728;38.022;2022-12-29T21:42:07;99312.44;;;13.25;33.77
75072;BME280;63651;55.728;38.022;2022-12-29T21:47:09;99302.56;;;13.24;34.12
75072;BME280;63651;55.728;38.022;2022-12-29T21:52:10;99276.72;;;13.08;34.01
75072;BME280;63651;55.728;38.022;2022-12-29T21:57:13;99269.97;;;13.10;34.04
75072;BME280;63651;55.728;38.022;2022-12-29T22:02:38;99288.34;;;13.22;34.20
75072;BME280;63651;55.728;38.022;2022-12-29T22:07:58;99273.88;;;13.21;34.47
75072;BME280;63651;55.728;38.022;2022-12-29T22:13:17;99281.22;;;13.21;33.87
75072;BME280;63651;55.728;38.022;2022-12-29T22:18:19;99267.81;;;13.19;34.15
75072;BME280;63651;55.728;38.022;2022-12-29T22:23:20;99265.06;;;13.19;34.07
75072;BME280;63651;55.728;38.022;2022-12-29T22:28:21;99275.53;;;13.22;34.00
75072;BME280;63651;55.728;38.022;2022-12-29T22:33:22;99281.22;;;13.21;34.08
75072;BME280;63651;55.728;38.022;2022-12-29T22:38:23;99267.47;;;13.09;34.18
75072;BME280;63651;55.728;38.022;2022-12-29T22:43:24;99280.59;;;13.19;34.42
75072;BME280;63651;55.728;38.022;2022-12-29T22:48:25;99278.50;;;13.21;34.12
75072;BME280;63651;55.728;38.022;2022-12-29T22:53:27;99269.00;;;13.23;34.38
75072;BME280;63651;55.728;38.022;2022-12-29T22:58:28;99266.75;;;13.20;34.01
75072;BME280;63651;55.728;38.022;2022-12-29T23:03:29;99267.56;;;13.21;34.21
75072;BME280;63651;55.728;38.022;2022-12-29T23:08:33;99264.63;;;13.22;34.59
75072;BME280;63651;55.728;38.022;2022-12-29T23:13:35;99270.31;;;13.21;34.21
75072;BME280;63651;55.728;38.022;2022-12-29T23:18:36;99253.72;;;13.22;34.27
75072;BME280;63651;55.728;38.022;2022-12-29T23:23:37;99255.59;;;13.22;34.04
75072;BME280;63651;55.728;38.022;2022-12-29T23:28:54;99257.41;;;13.28;34.55
75072;BME280;63651;55.728;38.022;2022-12-29T23:33:56;99257.41;;;13.28;34.10
75072;BME280;63651;55.728;38.022;2022-12-29T23:38:57;99253.03;;;13.27;34.51
75072;BME280;63651;55.728;38.022;2022-12-29T23:43:58;99260.38;;;13.26;34.28
75072;BME280;63651;55.728;38.022;2022-12-29T23:48:59;99249.31;;;13.21;34.31
75072;BME280;63651;55.728;38.022;2022-12-29T23:54:01;99251.13;;;13.27;34.09
75072;BME280;63651;55.728;38.022;2022-12-29T23:59:03;99268.94;;;13.30;34.06
